Whale Point, California Weather observations

Data are for observation ending at time listed.
 Day   Time    Ave.   Ave.  Ave.  Vector   Max.   Stn.    Total    Solar   Ave.  
  of    of     Air    Rel.  Wind   Wind    Wind   Baro.  Precip.   Rad.    Soil  
Year   Day     Temp.  Hum.  Speed  Dir.    Gust   Pres.                    Temp. 
2016   (PST)    F      %     mph   deg.    mph     mb.     in.     W/m2     F   
------------------------------------------------------------------------------
 204    8:40   67.5    44    2.2   187      4.1   997.0    0.00     717    74.4
 204    8:50   69.1    39    1.5   206      3.7   997.0    0.00     747    74.4
 204    9:00   68.3    44    2.0   200      3.8   997.0    0.00     776    74.4
 204    9:10   70.4    37    0.9   237      2.3   997.0    0.00     803    74.4
 204    9:20   72.3    31    1.7   204      3.4   997.3    0.00     831    74.4
 204    9:30   74.3    31    0.8   218      2.0   997.3    0.00     854    74.4
 204    9:40   76.2    33    0.4   226      1.3   997.3    0.00     881    74.4
 204    9:50   73.4    44    1.5   195      3.7   997.3    0.00     903    74.4
 204   10:00   64.2    61    2.3   170      3.5   997.3    0.00     924    74.5
 204   10:10   65.3    60    1.3   111      2.5   997.3    0.00     945    74.6
 204   10:20   69.0    54    0.8   352      2.3   997.3    0.00     963    74.7
 204   10:30   73.0    46    0.8   162      2.1   997.3    0.00     981    74.8
 204   10:40   77.7    32    1.0   169      2.1   997.3    0.00     998    74.8
 204   10:50   76.2    38    1.8   182      4.2   997.3    0.00    1013    74.9
 204   11:00   64.7    60    3.7   197      5.9   997.3    0.00    1025    75.1
 204   11:10   60.7    68    4.0   199      6.9   997.3    0.00    1036    75.3
 204   11:20   60.3    70    3.3   205      5.8   997.3    0.00    1045    75.4
 204   11:30   64.9    60    3.8   185      7.7   997.3    0.00    1052    75.5
 204   11:40   63.4    63    3.7   188      6.6   997.3    0.00    1059    75.5
 204   11:50   61.5    68    3.4   190      6.0   997.3    0.00    1063    75.7
 204   12:00   60.7    70    4.2   202      7.7   997.3    0.00    1065    75.8
 204   12:10   60.7    70    4.9   204      8.0   997.3    0.00    1067    75.9
 204   12:20   60.2    72    4.4   213      8.8   997.3    0.00    1065    76.1
 204   12:30   59.8    72    5.1   216      9.3   997.0    0.00    1063    76.2
 204   12:40   59.4    74    4.5   219      7.7   997.0    0.00    1061    76.4
 204   12:50   60.1    72    3.6   216      6.9   997.0    0.00    1056    76.6
 204   13:00   61.3    70    2.1   223      4.5   996.6    0.00    1049    76.8
 204   13:10   62.7    67    3.0   213      5.0   996.3    0.00    1041    76.9
 204   13:20   62.6    67    3.8   214      7.1   996.3    0.00    1032    77.1
 204   13:30   62.2    67    4.4   210      7.0   996.3    0.00    1022    77.4
 204   13:40   61.2    69    4.5   214      7.7   996.3    0.00    1005    77.6
 204   13:50   61.0    70    4.3   219      7.5   996.3    0.00     989    77.8
 204   14:00   62.7    66    3.0   216      6.1   996.3    0.00     972    78.1
 204   14:10   62.9    66    3.4   220      6.5   995.9    0.00     953    78.3
 204   14:20   63.0    66    3.6   218      7.1   995.9    0.00     934    78.6
 204   14:30   63.0    66    4.0   210      8.0   995.6    0.00     912    78.8
 204   14:40   61.9    68    4.1   217      6.8   995.6    0.00     890    79.1
 204   14:50   61.6    69    3.6   211      6.8   995.6    0.00     867    79.3
 204   15:00   62.5    67    3.0   223      6.9   995.3    0.00     844    79.6
 204   15:10   63.6    65    3.5   211      7.2   995.3    0.00     817    79.8
 204   15:20   62.4    67    3.9   218      6.9   994.9    0.00     789    80.1
 204   15:30   61.7    69    4.2   218      7.4   994.9    0.00     760    80.3
 204   15:40   62.1    68    3.0   223      6.8   994.6    0.00     731    80.5
 204   15:50   63.7    64    2.7   211      4.8   994.6    0.00     699    80.8
 204   16:00   64.9    61    1.9   233      4.8   994.2    0.00     668    81.0
 204   16:10   64.0    63    2.6   219      5.8   994.2    0.00     635    81.2
 204   16:20   64.5    62    2.5   231      5.0   994.2    0.00     602    81.5
 204   16:30   65.2    61    1.0   230      3.8   993.9    0.00     567    81.7
 204   16:40   68.3    55    0.9   336      2.6   993.9    0.00     424    81.9
 204   16:50   70.8    50    1.4   241      4.2   993.6    0.00      39    82.1
 204   17:00   68.9    53    1.4   219      3.9   993.6    0.00      38    82.3
 204   17:10   67.9    54    2.3   219      4.7   993.6    0.00     159    82.5
 204   17:20   64.5    61    2.2   237      5.7   993.2    0.00     386    82.7
 204   17:30   66.8    57    0.9   355      2.9   993.2    0.00     350    82.8
 204   17:40   70.9    50    0.5     0      1.9   993.2    0.00     313    83.0
 204   17:50   74.0    44    1.0   204      2.4   992.9    0.00     276    83.1
 204   18:00   72.7    45    0.9   165      3.3   992.9    0.00     238    83.2
 204   18:10   74.0    43    0.7   209      3.4   992.9    0.00     202    83.4
 204   18:20   71.6    45    2.3   343      4.5   992.9    0.00     167    83.5
 204   18:30   75.0    37    0.6   186      2.0   992.9    0.00     135    83.6
 204   18:40   75.7    38    0.6   242      1.7   992.9    0.00      75    83.7
 204   18:50   75.2    38    1.0   166      2.7   992.9    0.00      78    83.8
 204   19:00   72.7    42    0.8   186      2.0   992.9    0.00      48    83.8
 204   19:10   69.4    49    0.8   190      3.6   992.9    0.00      10    83.9
 204   19:20   64.3    60    1.9   145      4.2   992.9    0.00       5    84.0
 204   19:30   61.6    66    1.8    13      3.9   992.9    0.00       3    84.1
 204   19:40   64.9    55    1.8   154      3.4   992.9    0.00       1    84.1
 204   19:50   64.4    58    1.3    50      3.4   992.9    0.00       0    84.1
 204   20:00   71.0    40    1.3    60      2.6   992.9    0.00       0    84.1
 204   20:10   67.8    52    1.0   210      3.2   992.9    0.00       0    84.0
 204   20:20   63.2    61    1.3   157      2.7   992.9    0.00       0    84.0
 204   20:30   69.3    42    1.1   116      3.7   993.2    0.00       0    83.9
 204   20:40   71.7    37    1.1   169      3.2   993.2    0.00       0    83.9
 204   20:50   70.0    41    1.7   170      4.6   993.2    0.00       0    83.8
 204   21:00   69.5    40    1.8   135      3.7   993.2    0.00       0    83.7
 204   21:10   67.0    48    1.9   127      3.8   993.2    0.00       0    83.6
 204   21:20   67.4    45    1.7   356      4.5   993.2    0.00       0    83.5
 204   21:30   65.6    52    2.5   169      4.4   993.6    0.00       0    83.4
 204   21:40   61.5    62    1.8   175      4.7   993.6    0.00       0    83.3
 204   21:50   61.9    61    2.0   106      5.0   993.6    0.00       0    83.2
 204   22:00   60.5    64    0.9   136      2.5   993.6    0.00       0    83.0
 204   22:10   59.4    68    1.8   184      4.2   993.6    0.00       0    82.9
 204   22:20   57.2    74    1.1    21      4.3   993.6    0.00       0    82.8
 204   22:30   57.2    74    1.2     4      4.7   993.6    0.00       0    82.6
 204   22:40   57.0    74    0.6    29      2.0   993.6    0.00       0    82.5
 204   22:50   57.4    73    0.7    12      1.7   993.6    0.00       0    82.3
 204   23:00   56.8    76    0.9     9      2.5   993.6    0.00       0    82.2
 204   23:10   56.9    73    1.3   174      3.9   993.6    0.00       0    82.0
 204   23:20   57.8    72    0.5   352      2.1   993.6    0.00       0    81.9
 204   23:30   57.6    71    0.7   212      2.1   993.6    0.00       0    81.7
 204   23:40   57.7    72    0.6    10      2.2   993.6    0.00       0    81.6
 204   23:50   57.7    69    0.3    77      1.6   993.6    0.00       0    81.4
 205    0:00   57.7    71    1.3    17      3.7   993.6    0.00       0    81.3
 205    0:10   58.3    69    0.4   207      1.4   993.6    0.00       0    81.1
 205    0:20   58.1    68    0.7   165      1.5   993.6    0.00       0    81.0
 205    0:30   57.8    69    0.4   121      2.0   993.2    0.00       0    80.8
 205    0:40   57.8    67    1.5    16      3.4   993.2    0.00       0    80.7
 205    0:50   57.8    66    1.5   151      3.4   992.9    0.00       0    80.5
 205    1:00   57.9    67    0.9   141      2.9   992.9    0.00       0    80.3
 205    1:10   58.7    62    0.5   150      2.0   992.9    0.00       0    80.2
 205    1:20   58.6    64    0.9     5      2.3   992.9    0.00       0    80.1
 205    1:30   58.0    67    1.9    10      3.9   992.9    0.00       0    79.9
 205    1:40   57.8    67    0.3   144      1.4   992.9    0.00       0    79.8
 205    1:50   56.8    71    1.2    32      2.6   992.9    0.00       0    79.6
 205    2:00   56.0    70    2.2    33      3.6   992.6    0.00       0    79.4
 205    2:10   55.9    69    1.4   158      4.2   992.6    0.00       0    79.3
 205    2:20   56.2    69    1.3   201      3.5   992.2    0.00       0    79.2
 205    2:30   56.4    68    1.1    20      2.6   992.2    0.00       0    79.0
 205    2:40   57.5    62    0.6    16      1.8   992.2    0.00       0    78.9
 205    2:50   61.3    44    2.7   137      4.3   992.2    0.00       0    78.7
 205    3:00   63.4    46    1.0   165      3.7   992.2    0.00       0    78.6
 205    3:10   58.9    60    2.1    18      5.1   992.2    0.00       0    78.5
 205    3:20   58.8    59    1.5   172      2.9   992.2    0.00       0    78.3
 205    3:30   58.2    61    1.0   181      2.4   991.9    0.00       0    78.2
 205    3:40   56.4    69    0.7   168      2.0   991.9    0.00       0    78.0
 205    3:50   55.9    68    0.8    16      2.6   991.9    0.00       0    77.9
 205    4:00   55.6    66    0.5    60      1.8   991.9    0.00       0    77.8
 205    4:10   59.4    39    1.2    18      3.4   991.9    0.00       0    77.6
 205    4:20   66.3    19    0.6   128      2.0   991.9    0.00       0    77.5
 205    4:30   67.1    22    1.1    89      3.8   991.9    0.00       0    77.4
 205    4:40   63.2    33    1.1   208      3.6   991.5    0.00       0    77.3
 205    4:50   63.6    29    1.3   152      3.2   991.9    0.00       0    77.1
 205    5:00   64.1    32    1.7   163      2.8   991.9    0.00       1    77.0
 205    5:10   63.2    39    1.9    19      6.1   991.9    0.00       4    76.9
 205    5:20   62.4    38    1.3   182      3.7   991.9    0.00       6    76.8
 205    5:30   58.2    58    1.5    12      4.5   991.9    0.00       9    76.6
 205    5:40   58.9    49    3.5    18      6.2   991.9    0.00      11    76.5
 205    5:50   61.0    42    1.1    65      5.7   991.9    0.00      13    76.4
 205    6:00   61.6    40    1.5   153      3.7   991.9    0.00      15    76.3
 205    6:10   59.5    55    1.1   133      3.1   991.9    0.00      17    76.2
 205    6:20   58.6    60    1.1    72      4.2   992.2    0.00      18    76.0
 205    6:30   58.0    62    1.0   286      2.5   992.2    0.00      19    75.9
 205    6:40   58.5    62    0.5    51      2.0   992.2    0.00      20    75.8
 205    6:50   59.4    55    1.3   163      3.7   992.2    0.00      20    75.7
 205    7:00   62.7    40    1.7    83      3.6   991.9    0.00      22    75.6
 205    7:10   65.4    33    1.4   164      3.7   991.9    0.00     291    75.5
 205    7:20   66.1    39    2.2   173      5.6   991.9    0.00     447    75.3
 205    7:30   66.7    37    1.3   316      4.1   991.9    0.00     491    75.2
 205    7:40   68.3    36    0.6    59      1.7   992.2    0.00     523    75.1
 205    7:50   69.6    34    1.5   154      4.7   992.2    0.00     556    75.0
 205    8:00   68.3    39    2.1   360      3.7   992.2    0.00     589    74.9
 205    8:10   69.3    38    1.1   249      3.3   992.2    0.00     621    74.9
 205    8:20   65.4    49    3.2   184      6.1   992.2    0.00     652    74.8
 205    8:30   63.4    53    2.3   168      5.2   992.2    0.00     684    74.8

Return to Whale Point graphs page.


Western Regional Climate Center,wrcc@dri.edu